Time;durP1;ratioP1;P1;durP2;ratioP2;P2;SDS_P1;SDS_P2;PMS_P1;PMS_P2;Temp;Humidity;BMP_temperature;BMP_pressure;BME280_temperature;BME280_humidity;BME280_pressure;Samples;Min_cycle;Max_cycle;Signal;HPM_P1;HPM_P2
2022/08/04 00:00:24;;;;;;;37.25;6.53;;;;;;;25.21;100.00;97810.97;5006844;28;20037;-60
2022/08/04 00:03:14;;;;;;;33.03;6.40;;;;;;;25.07;100.00;97805.41;4991080;28;20072;-60
2022/08/04 00:06:19;;;;;;;35.58;6.40;;;;;;;24.76;100.00;97798.75;5010291;28;20033;-59
2022/08/04 00:08:55;;;;;;;31.83;6.38;;;;;;;25.12;100.00;97797.78;5009344;28;20032;-60
2022/08/04 00:11:22;;;;;;;31.08;5.85;;;;;;;25.20;100.00;97804.00;5009368;28;20046;-60
2022/08/04 00:14:02;;;;;;;32.67;6.15;;;;;;;25.02;100.00;97803.25;5009972;28;20046;-60
2022/08/04 00:16:31;;;;;;;31.25;6.18;;;;;;;25.16;100.00;97804.44;5007858;28;20034;-60
2022/08/04 00:19:03;;;;;;;34.03;6.30;;;;;;;24.91;100.00;97800.84;5008864;28;20063;-60
2022/08/04 00:21:33;;;;;;;38.08;6.45;;;;;;;25.12;100.00;97800.44;5005420;28;20042;-59
2022/08/04 00:24:00;;;;;;;32.08;6.40;;;;;;;24.89;100.00;97808.19;5007858;28;20056;-60
2022/08/04 00:26:26;;;;;;;36.40;6.38;;;;;;;25.06;100.00;97811.75;5010427;28;20044;-60
2022/08/04 00:28:52;;;;;;;38.80;6.57;;;;;;;24.78;100.00;97799.44;5010053;28;20009;-60
2022/08/04 00:31:18;;;;;;;42.00;7.10;;;;;;;24.36;100.00;97801.97;5005295;28;20124;-59
2022/08/04 00:33:45;;;;;;;35.72;6.60;;;;;;;24.63;100.00;97803.69;5008087;28;20021;-59
2022/08/04 00:36:11;;;;;;;32.10;6.50;;;;;;;24.65;100.00;97806.16;5007464;28;20137;-59
2022/08/04 00:38:39;;;;;;;31.38;6.38;;;;;;;24.56;100.00;97807.97;5007768;28;20032;-59
2022/08/04 00:41:05;;;;;;;30.38;6.32;;;;;;;24.66;100.00;97808.69;5008958;28;20052;-60
2022/08/04 00:43:32;;;;;;;37.13;6.70;;;;;;;24.62;100.00;97812.66;4994412;28;20021;-59
2022/08/04 00:46:35;;;;;;;33.83;6.35;;;;;;;24.68;100.00;97804.03;5007933;28;20953;-60
2022/08/04 00:49:37;;;;;;;30.70;6.07;;;;;;;24.67;100.00;97809.53;5006961;28;20895;-60
2022/08/04 00:52:34;;;;;;;34.40;6.53;;;;;;;24.48;100.00;97810.53;5006646;28;20038;-61
2022/08/04 00:55:11;;;;;;;33.97;6.43;;;;;;;24.82;100.00;97814.13;5009217;28;20029;-59
2022/08/04 00:57:53;;;;;;;39.75;7.10;;;;;;;24.38;100.00;97810.63;5006954;28;20048;-60
2022/08/04 01:00:19;;;;;;;39.78;7.10;;;;;;;24.37;100.00;97809.81;5008176;28;20113;-59
2022/08/04 01:02:47;;;;;;;38.80;6.72;;;;;;;24.89;100.00;97802.84;5007231;28;20727;-60
2022/08/04 01:05:27;;;;;;;32.63;6.25;;;;;;;24.75;100.00;97806.91;5008114;28;20788;-59
2022/08/04 01:08:05;;;;;;;29.42;5.68;;;;;;;24.77;100.00;97810.25;5007734;28;20899;-60
2022/08/04 01:10:52;;;;;;;32.17;5.82;;;;;;;24.49;100.00;97809.56;5006500;28;20136;-60
2022/08/04 01:13:55;;;;;;;32.17;6.25;;;;;;;24.66;100.00;97808.69;5007664;28;20854;-59
2022/08/04 01:16:23;;;;;;;;;;;;;;;24.43;100.00;97809.19;5008773;28;20037;-59
2022/08/04 01:18:59;;;;;;;32.97;6.50;;;;;;;24.37;100.00;97809.81;5008534;28;19913;-60
2022/08/04 01:21:27;;;;;;;37.17;6.63;;;;;;;24.34;100.00;97804.78;5006521;28;20124;-59
2022/08/04 01:23:58;;;;;;;40.72;6.80;;;;;;;24.57;100.00;97817.63;5008845;28;20045;-59
2022/08/04 01:26:42;;;;;;;40.42;7.00;;;;;;;24.09;100.00;97810.91;5007404;28;20081;-60
2022/08/04 01:29:10;;;;;;;33.70;6.60;;;;;;;23.83;100.00;97801.81;5007442;28;20030;-59
2022/08/04 01:32:03;;;;;;;41.63;7.57;;;;;;;23.82;100.00;97815.28;5008425;28;20077;-60
2022/08/04 01:34:34;;;;;;;32.10;6.13;;;;;;;23.75;100.00;97808.88;5006991;28;20022;-59
2022/08/04 01:37:09;;;;;;;40.50;7.47;;;;;;;23.62;100.00;97810.09;5006079;28;20042;-60
2022/08/04 01:39:50;;;;;;;35.25;6.20;;;;;;;23.89;100.00;97808.38;5007451;28;20264;-59
2022/08/04 01:42:18;;;;;;;36.97;6.72;;;;;;;23.94;100.00;97815.91;5006649;28;20037;-60
2022/08/04 01:44:47;;;;;;;37.90;6.32;;;;;;;23.81;100.00;97817.13;5007216;28;20025;-59
2022/08/04 01:47:15;;;;;;;39.83;6.45;;;;;;;24.04;100.00;97814.00;5007189;28;20064;-59
2022/08/04 01:49:43;;;;;;;35.78;6.80;;;;;;;23.75;100.00;97814.22;5007390;28;20517;-59
2022/08/04 01:52:09;;;;;;;40.45;7.28;;;;;;;23.32;100.00;97811.22;5005810;28;20536;-60
2022/08/04 01:54:38;;;;;;;30.67;6.43;;;;;;;23.35;100.00;97820.75;5006573;28;20029;-60
2022/08/04 01:57:05;;;;;;;27.60;6.32;;;;;;;23.29;100.00;97823.00;5009667;28;20048;-60
2022/08/04 01:59:33;;;;;;;32.35;6.60;;;;;;;23.47;100.00;97819.53;5008517;28;20033;-59
2022/08/04 02:01:58;;;;;;;32.75;6.15;;;;;;;23.61;100.00;97819.03;5006972;28;20034;-59
2022/08/04 02:04:23;;;;;;;36.40;6.90;;;;;;;23.34;100.00;97819.06;5008439;28;20018;-60
2022/08/04 02:07:02;;;;;;;41.30;6.60;;;;;;;23.91;100.00;97817.03;5005960;28;20164;-60
2022/08/04 02:09:40;;;;;;;40.47;7.20;;;;;;;23.70;100.00;97813.81;5008530;28;20119;-59
2022/08/04 02:12:31;;;;;;;30.15;5.97;;;;;;;23.92;100.00;97816.06;5006764;28;20691;-60
2022/08/04 02:15:06;;;;;;;34.28;6.10;;;;;;;23.95;100.00;97821.09;5007512;28;20036;-60
2022/08/04 02:18:16;;;;;;;39.67;6.93;;;;;;;23.19;100.00;97818.72;5006742;28;20671;-59
2022/08/04 02:20:47;;;;;;;34.10;6.50;;;;;;;23.00;100.00;97816.94;4935664;29;20047;-60
2022/08/04 02:23:18;;;;;;;34.23;6.23;;;;;;;22.98;100.00;97821.59;4937102;29;20039;-60
2022/08/04 02:25:55;;;;;;;32.45;5.97;;;;;;;23.27;100.00;97822.31;4973581;28;20569;-59
2022/08/04 02:28:25;;;;;;;27.10;5.82;;;;;;;22.97;100.00;97814.56;5006683;28;20332;-60
2022/08/04 02:31:16;;;;;;;25.08;5.90;;;;;;;22.89;100.00;97812.66;5004856;28;20120;-59
2022/08/04 02:33:44;;;;;;;31.73;6.63;;;;;;;23.08;100.00;97812.59;5007677;28;20622;-59
2022/08/04 02:36:15;;;;;;;37.30;6.60;;;;;;;22.90;100.00;97804.53;5005617;28;20033;-58
2022/08/04 02:38:59;;;;;;;53.00;7.97;;;;;;;23.12;100.00;97810.47;5007491;28;20020;-59
2022/08/04 02:41:26;;;;;;;40.40;6.80;;;;;;;22.80;100.00;97814.34;5005386;28;20040;-58
2022/08/04 02:43:57;;;;;;;36.55;6.65;;;;;;;22.83;100.00;97808.75;5008058;28;20108;-59
2022/08/04 02:46:23;;;;;;;30.88;6.13;;;;;;;23.26;100.00;97807.31;5006970;28;20037;-58
2022/08/04 02:48:51;;;;;;;38.67;6.80;;;;;;;23.40;100.00;97805.19;5009990;28;20029;-59
2022/08/04 02:51:22;;;;;;;38.38;6.80;;;;;;;22.89;100.00;97802.00;5009275;28;20111;-58
2022/08/04 02:53:54;;;;;;;41.75;7.32;;;;;;;22.89;100.00;97802.84;5010404;28;20061;-58
2022/08/04 02:56:21;;;;;;;36.50;6.70;;;;;;;22.58;100.00;97804.91;5009037;28;20399;-59
2022/08/04 02:58:51;;;;;;;48.50;7.63;;;;;;;22.85;100.00;97800.63;5011688;28;20026;-59
2022/08/04 03:01:16;;;;;;;33.63;6.60;;;;;;;22.78;100.00;97800.38;5009038;28;20507;-59
2022/08/04 03:03:58;;;;;;;30.63;6.40;;;;;;;22.83;100.00;97808.75;5011401;28;20144;-59
2022/08/04 03:06:26;;;;;;;33.72;6.53;;;;;;;22.96;100.00;97808.44;5011112;28;20131;-60
2022/08/04 03:09:17;;;;;;;39.45;6.97;;;;;;;22.65;100.00;97807.81;5011193;28;20120;-58
2022/08/04 03:12:01;;;;;;;34.13;6.28;;;;;;;22.97;100.00;97806.59;5009201;28;20097;-59
2022/08/04 03:14:51;;;;;;;39.92;7.22;;;;;;;22.71;100.00;97809.91;5010927;28;20486;-60
2022/08/04 03:17:41;;;;;;;30.98;5.88;;;;;;;23.12;100.00;97802.50;5009122;28;20030;-60
2022/08/04 03:20:15;;;;;;;65.50;9.25;;;;;;;22.72;100.00;97811.59;5008663;28;20029;-57
2022/08/04 03:22:49;;;;;;;31.17;6.43;;;;;;;22.60;100.00;97810.06;5010605;28;20026;-58
2022/08/04 03:25:40;;;;;;;41.30;7.25;;;;;;;22.63;100.00;97812.44;5009045;28;20061;-59
2022/08/04 03:28:42;;;;;;;47.08;7.80;;;;;;;22.89;100.00;97808.16;5012141;28;20548;-59
2022/08/04 03:31:46;;;;;;;35.15;6.97;;;;;;;22.94;100.00;97810.41;5006938;28;20061;-59
2022/08/04 03:34:11;;;;;;;44.22;7.63;;;;;;;22.58;100.00;97812.03;5010224;28;20025;-59
2022/08/04 03:37:28;;;;;;;40.87;7.07;;;;;;;23.03;100.00;97809.53;5010470;28;20037;-58
2022/08/04 03:40:28;;;;;;;32.88;6.60;;;;;;;22.69;100.00;97811.88;4940217;29;20267;-58
2022/08/04 03:43:22;;;;;;;35.72;6.60;;;;;;;23.16;100.00;97816.34;4940228;29;20493;-58
2022/08/04 03:46:12;;;;;;;31.13;6.47;;;;;;;22.96;100.00;97812.91;5007149;28;20033;-59
2022/08/04 03:49:15;;;;;;;31.35;6.13;;;;;;;23.18;100.00;97809.91;5011779;28;20167;-58
2022/08/04 03:55:15;;;;;;;32.35;6.28;;;;;;;22.99;100.00;97808.13;5009584;28;20041;-59
2022/08/04 03:57:56;;;;;;;29.48;6.00;;;;;;;22.85;100.00;97812.09;5009631;28;20645;-59
2022/08/04 04:00:49;;;;;;;37.53;6.75;;;;;;;23.16;100.00;97803.03;5007205;28;20022;-59
2022/08/04 04:03:23;;;;;;;39.72;6.65;;;;;;;22.98;100.00;97808.28;5010080;28;20032;-59
2022/08/04 04:05:54;;;;;;;31.73;6.10;;;;;;;23.07;100.00;97805.59;5008151;28;20065;-59
2022/08/04 04:08:28;;;;;;;29.75;6.18;;;;;;;23.25;100.00;97808.34;5008496;28;20065;-59
2022/08/04 04:11:21;;;;;;;30.33;6.03;;;;;;;22.72;100.00;97811.59;5007999;28;20069;-58
2022/08/04 04:13:59;;;;;;;38.10;6.65;;;;;;;23.67;100.00;97806.94;5009662;28;20022;-59
2022/08/04 04:16:42;;;;;;;30.90;5.75;;;;;;;23.70;100.00;97816.47;5009275;28;20037;-59
2022/08/04 04:19:34;;;;;;;29.48;6.20;;;;;;;23.50;100.00;97808.59;5009708;28;20519;-59
2022/08/04 04:22:18;;;;;;;;;;;;;;;23.88;100.00;97808.53;5008390;28;20034;-59
2022/08/04 04:25:25;;;;;;;42.83;7.07;;;;;;;23.40;100.00;97808.66;5010431;28;19913;-59
2022/08/04 04:28:09;;;;;;;40.10;6.57;;;;;;;23.34;100.00;97800.44;5009029;28;20073;-59
2022/08/04 04:30:41;;;;;;;31.23;6.40;;;;;;;23.37;100.00;97802.81;4991360;28;20042;-59
2022/08/04 04:33:25;;;;;;;32.97;5.78;;;;;;;23.94;100.00;97811.41;5006577;28;20036;-59
2022/08/04 04:35:53;;;;;;;70.53;9.80;;;;;;;23.94;100.00;97806.09;5005182;28;20040;-59
2022/08/04 04:38:51;;;;;;;28.02;5.93;;;;;;;23.81;100.00;97802.97;5007686;28;20171;-59
2022/08/04 04:41:45;;;;;;;26.23;5.68;;;;;;;24.46;100.00;97804.53;5007171;28;20072;-59
2022/08/04 04:44:40;;;;;;;33.95;6.47;;;;;;;23.83;100.00;97801.00;5009181;28;20498;-59
2022/08/04 04:47:15;;;;;;;33.35;6.10;;;;;;;24.41;100.00;97805.84;5008030;28;20046;-59
2022/08/04 04:49:58;;;;;;;35.17;5.75;;;;;;;24.44;99.12;97805.53;5009681;28;20068;-59
2022/08/04 04:52:48;;;;;;;32.88;6.00;;;;;;;24.62;97.65;97815.34;5008885;28;20041;-58
2022/08/04 04:55:20;;;;;;;34.67;5.90;;;;;;;24.86;96.28;97811.97;5008436;28;20026;-58
2022/08/04 04:57:50;;;;;;;36.40;6.30;;;;;;;24.91;94.50;97816.84;4994352;28;20021;-58
2022/08/04 05:00:17;;;;;;;32.85;6.38;;;;;;;24.42;98.92;97818.16;5007649;28;20022;-58
2022/08/04 05:03:15;;;;;;;31.23;6.50;;;;;;;25.00;91.72;97821.25;5009573;28;20109;-59
2022/08/04 05:06:05;;;;;;;26.60;5.15;;;;;;;25.64;86.08;97818.16;5009057;28;20040;-58
2022/08/04 05:08:49;;;;;;;22.70;5.40;;;;;;;25.35;86.73;97820.25;5009623;28;20060;-58
2022/08/04 05:11:50;;;;;;;32.88;6.05;;;;;;;26.02;84.60;97816.78;5005651;28;20980;-58
2022/08/04 05:14:33;;;;;;;39.50;6.60;;;;;;;25.41;86.46;97823.28;5008474;28;20112;-60
2022/08/04 05:17:17;;;;;;;30.63;5.93;;;;;;;25.08;90.04;97818.59;5004984;28;20096;-59
2022/08/04 05:19:42;;;;;;;37.67;5.95;;;;;;;25.48;88.89;97819.81;5008871;28;20036;-58
2022/08/04 05:22:12;;;;;;;31.13;5.82;;;;;;;26.03;82.58;97831.00;5007114;28;20049;-59
2022/08/04 05:24:41;;;;;;;35.38;6.18;;;;;;;25.71;83.62;97819.19;5008002;28;20057;-59
2022/08/04 05:27:21;;;;;;;34.33;5.55;;;;;;;26.22;81.59;97827.16;5007861;28;20043;-58
2022/08/04 05:29:54;;;;;;;44.10;6.78;;;;;;;27.08;72.44;97823.88;5006351;28;20029;-59
2022/08/04 05:32:27;;;;;;;39.85;6.88;;;;;;;27.02;71.02;97829.09;5005676;28;20033;-59
2022/08/04 05:34:59;;;;;;;41.80;6.45;;;;;;;27.15;71.35;97828.53;5007797;28;20632;-60
2022/08/04 05:37:27;;;;;;;41.38;6.10;;;;;;;27.35;68.84;97824.50;5006858;28;20068;-60
2022/08/04 05:40:03;;;;;;;28.02;5.18;;;;;;;26.80;69.20;97827.97;5008139;28;20018;-60
2022/08/04 05:42:30;;;;;;;32.40;5.90;;;;;;;27.33;69.59;97831.84;5007067;28;20045;-59
2022/08/04 05:44:57;;;;;;;41.05;5.15;;;;;;;27.87;64.56;97834.59;5006343;28;20022;-61
2022/08/04 05:47:23;;;;;;;37.17;5.65;;;;;;;27.58;64.72;97821.03;5004786;28;20034;-60
2022/08/04 05:49:49;;;;;;;26.58;5.28;;;;;;;28.67;57.26;97823.66;5007033;28;20702;-60
2022/08/04 05:52:15;;;;;;;29.17;5.35;;;;;;;28.06;58.86;97821.78;5007005;28;20042;-59
2022/08/04 05:54:41;;;;;;;38.22;5.88;;;;;;;31.19;49.89;97819.38;5007779;28;20017;-60
2022/08/04 05:57:08;;;;;;;26.55;5.10;;;;;;;31.74;46.65;97822.09;5007151;28;20059;-60
2022/08/04 05:59:37;;;;;;;24.95;5.20;;;;;;;34.54;41.71;97826.13;5007019;28;20028;-60
2022/08/04 06:02:04;;;;;;;28.55;5.13;;;;;;;35.85;38.19;97821.41;5006725;28;20049;-60
2022/08/04 06:04:34;;;;;;;24.17;4.53;;;;;;;37.79;34.60;97818.91;5006729;28;20025;-60
2022/08/04 06:06:59;;;;;;;29.58;5.05;;;;;;;35.77;35.35;97824.44;5006867;28;20036;-60
2022/08/04 06:09:25;;;;;;;29.38;5.20;;;;;;;38.38;33.08;97820.50;5008937;28;20041;-60
2022/08/04 06:11:52;;;;;;;32.65;5.50;;;;;;;39.21;31.89;97822.56;5002469;28;20095;-60
2022/08/04 06:14:22;;;;;;;22.15;4.40;;;;;;;40.61;30.14;97813.72;5007480;28;20025;-60
2022/08/04 06:16:49;;;;;;;23.13;5.00;;;;;;;40.56;30.22;97816.41;5003714;28;20698;-61
2022/08/04 06:19:17;;;;;;;17.80;4.03;;;;;;;41.09;29.54;97819.25;5006435;28;20671;-62
2022/08/04 06:21:47;;;;;;;17.77;4.15;;;;;;;41.02;29.11;97815.94;5006190;28;20041;-62
2022/08/04 06:24:17;;;;;;;15.75;3.75;;;;;;;41.31;28.69;97815.56;5023890;28;20621;-61
2022/08/04 06:26:44;;;;;;;15.65;3.60;;;;;;;41.92;27.42;97804.81;5006322;28;20111;-60
2022/08/04 06:29:19;;;;;;;15.40;4.03;;;;;;;42.22;26.57;97814.19;5007705;28;20495;-61
2022/08/04 06:31:56;;;;;;;14.40;3.55;;;;;;;43.79;25.28;97813.31;5002948;28;20500;-60
2022/08/04 06:34:23;;;;;;;11.50;3.42;;;;;;;42.45;26.33;97818.31;5006872;28;20030;-61
2022/08/04 06:36:48;;;;;;;16.35;3.58;;;;;;;41.68;28.03;97817.38;5006031;28;20042;-60
2022/08/04 06:39:14;;;;;;;15.77;4.13;;;;;;;41.75;27.44;97810.53;5008492;28;20503;-61
2022/08/04 06:41:40;;;;;;;12.70;3.67;;;;;;;41.45;27.73;97811.25;5006578;28;20049;-61
2022/08/04 06:44:09;;;;;;;15.23;4.28;;;;;;;43.49;25.39;97820.59;5006212;28;20061;-61
2022/08/04 06:46:38;;;;;;;11.73;3.50;;;;;;;41.99;25.91;97816.31;5006751;28;20041;-60
2022/08/04 06:49:04;;;;;;;12.30;3.67;;;;;;;40.81;27.50;97824.00;5007170;28;20030;-61
2022/08/04 06:51:32;;;;;;;13.80;3.83;;;;;;;42.41;26.09;97822.69;5004887;28;20049;-61
2022/08/04 06:53:57;;;;;;;10.35;3.25;;;;;;;43.50;25.02;97832.41;5007803;28;20818;-61
2022/08/04 06:56:24;;;;;;;13.18;3.40;;;;;;;44.24;24.04;97824.31;5005774;28;20543;-61
2022/08/04 06:58:54;;;;;;;11.98;3.20;;;;;;;43.74;24.65;97824.34;5006182;28;20033;-61
2022/08/04 07:01:21;;;;;;;14.00;4.00;;;;;;;44.74;23.97;97822.25;5005279;28;20141;-60
2022/08/04 07:03:48;;;;;;;10.93;3.50;;;;;;;45.45;23.20;97821.78;5006917;28;20030;-61
2022/08/04 07:06:14;;;;;;;10.23;3.15;;;;;;;48.30;20.17;97821.56;5008315;28;20084;-61
2022/08/04 07:08:39;;;;;;;13.07;3.30;;;;;;;45.96;21.74;97819.16;5005533;28;20034;-61
2022/08/04 07:11:05;;;;;;;10.88;3.35;;;;;;;44.22;23.21;97815.53;5005003;28;20038;-61
2022/08/04 07:13:32;;;;;;;11.55;3.25;;;;;;;45.39;22.58;97810.84;5007675;28;20079;-61
2022/08/04 07:15:59;;;;;;;17.98;4.10;;;;;;;43.85;22.82;97814.94;5006657;28;20037;-61
2022/08/04 07:18:25;;;;;;;11.20;2.97;;;;;;;45.99;20.44;97806.72;5006353;28;20112;-61
2022/08/04 07:20:51;;;;;;;7.55;2.80;;;;;;;45.15;20.63;97810.81;5004005;28;20041;-61
2022/08/04 07:23:22;;;;;;;11.70;3.08;;;;;;;45.67;19.70;97804.69;5003299;28;20032;-60
2022/08/04 07:25:53;;;;;;;13.77;3.20;;;;;;;45.98;19.45;97807.84;5005598;28;20022;-63
2022/08/04 07:28:20;;;;;;;12.73;3.35;;;;;;;48.46;17.64;97801.88;5005075;28;20034;-61
2022/08/04 07:30:47;;;;;;;12.48;3.35;;;;;;;42.82;22.07;97805.41;5004834;28;20100;-61
2022/08/04 07:33:14;;;;;;;17.25;4.03;;;;;;;42.27;22.85;97805.97;5005346;28;20095;-61
2022/08/04 07:35:40;;;;;;;19.38;5.07;;;;;;;44.02;21.50;97799.97;4999447;28;20065;-60
2022/08/04 07:38:06;;;;;;;23.80;4.82;;;;;;;44.80;21.17;97799.09;5002067;28;20133;-60
2022/08/04 07:40:31;;;;;;;21.42;4.53;;;;;;;44.36;20.26;97804.72;5003316;28;20396;-61
2022/08/04 07:42:58;;;;;;;16.45;4.20;;;;;;;45.96;19.55;97799.06;5006737;28;20157;-60
2022/08/04 07:45:24;;;;;;;20.20;4.70;;;;;;;47.66;18.57;97803.13;5005737;28;20021;-63
2022/08/04 07:47:49;;;;;;;19.50;4.82;;;;;;;45.54;20.05;97801.53;5007465;28;20105;-61
2022/08/04 07:50:16;;;;;;;15.68;4.43;;;;;;;44.83;20.07;97801.25;5004263;28;20052;-60
2022/08/04 07:52:44;;;;;;;17.30;4.25;;;;;;;48.22;18.40;97797.47;5002706;28;20054;-60
2022/08/04 07:55:10;;;;;;;13.05;4.20;;;;;;;44.65;20.59;97793.75;5005569;28;20657;-61
2022/08/04 07:57:36;;;;;;;12.13;3.70;;;;;;;47.34;18.85;97789.50;5001675;28;20037;-64
2022/08/04 08:00:04;;;;;;;22.30;4.97;;;;;;;44.87;20.38;97793.25;5005938;28;20529;-62
2022/08/04 08:02:29;;;;;;;19.05;4.22;;;;;;;47.37;18.31;97797.97;5007078;28;20145;-61
2022/08/04 08:04:55;;;;;;;22.90;4.68;;;;;;;46.93;18.58;97800.22;5005281;28;20026;-62
2022/08/04 08:07:20;;;;;;;23.13;4.78;;;;;;;43.15;21.54;97793.00;5005803;28;20052;-62
2022/08/04 08:09:46;;;;;;;14.45;3.55;;;;;;;41.13;22.77;97782.06;5008320;28;20030;-62
2022/08/04 08:12:12;;;;;;;13.80;3.70;;;;;;;45.08;20.26;97784.78;5007501;28;20065;-62
2022/08/04 08:14:38;;;;;;;16.65;3.88;;;;;;;45.51;19.89;97790.31;5009167;28;20495;-62
2022/08/04 08:17:04;;;;;;;18.25;3.78;;;;;;;44.85;19.90;97789.94;5008066;28;20046;-62
2022/08/04 08:19:31;;;;;;;13.93;3.45;;;;;;;43.82;21.50;97790.78;5006540;28;20030;-61
2022/08/04 08:21:57;;;;;;;15.75;3.47;;;;;;;43.75;21.31;97782.06;5006745;28;20038;-62
2022/08/04 08:24:23;;;;;;;14.80;3.30;;;;;;;46.27;19.53;97784.81;5008870;28;20029;-62
2022/08/04 08:26:48;;;;;;;16.55;3.85;;;;;;;45.58;19.49;97779.75;5009181;28;20061;-61
2022/08/04 08:29:14;;;;;;;18.55;3.92;;;;;;;45.11;19.12;97781.41;5008592;28;20034;-61
2022/08/04 08:31:40;;;;;;;15.07;3.50;;;;;;;47.44;17.81;97780.97;5005000;28;20064;-63
2022/08/04 08:34:07;;;;;;;20.92;4.68;;;;;;;47.57;18.02;97777.34;5004579;28;20026;-61
2022/08/04 08:36:40;;;;;;;17.55;3.95;;;;;;;46.53;18.43;97777.75;5009811;28;20283;-62
2022/08/04 08:39:15;;;;;;;15.85;4.03;;;;;;;45.10;19.61;97771.53;5007207;28;20729;-61
2022/08/04 08:41:58;;;;;;;13.02;3.50;;;;;;;46.66;17.98;97769.81;5005029;28;20258;-62
2022/08/04 08:44:47;;;;;;;15.38;3.75;;;;;;;45.94;18.66;97759.97;5007532;28;20043;-61
2022/08/04 08:47:37;;;;;;;19.38;4.22;;;;;;;47.20;17.60;97765.41;5002811;28;20128;-61
2022/08/04 08:50:27;;;;;;;21.08;4.45;;;;;;;44.92;18.84;97762.94;5006030;28;20040;-62
2022/08/04 08:53:22;;;;;;;18.77;3.58;;;;;;;46.82;18.16;97762.88;5005774;28;20099;-61
2022/08/04 08:56:12;;;;;;;22.42;4.22;;;;;;;46.41;18.35;97769.09;4977644;28;20034;-61
2022/08/04 08:59:08;;;;;;;17.85;3.95;;;;;;;48.01;17.26;97770.28;5006283;28;20613;-63
2022/08/04 09:01:49;;;;;;;24.15;4.22;;;;;;;46.47;18.29;97762.44;4961828;28;20499;-63
2022/08/04 09:04:38;;;;;;;13.00;3.60;;;;;;;46.76;18.60;97772.34;5007799;28;20025;-62
2022/08/04 09:07:25;;;;;;;14.05;3.67;;;;;;;47.15;17.92;97765.56;5006142;28;20108;-62
2022/08/04 09:10:31;;;;;;;16.58;3.80;;;;;;;46.63;18.36;97760.19;5007449;28;20036;-61
2022/08/04 09:13:05;;;;;;;15.40;3.72;;;;;;;45.91;19.04;97760.56;4967483;28;20057;-61
2022/08/04 09:15:53;;;;;;;18.63;4.00;;;;;;;45.64;19.21;97762.00;4966391;28;20038;-61
2022/08/04 09:18:31;;;;;;;18.52;3.90;;;;;;;46.07;18.95;97756.47;4992164;28;20045;-62
2022/08/04 09:21:16;;;;;;;18.08;4.03;;;;;;;45.48;19.31;97755.13;5006101;28;20037;-60
2022/08/04 09:23:58;;;;;;;19.85;4.20;;;;;;;45.88;18.92;97755.63;5005818;28;20725;-61
2022/08/04 09:26:30;;;;;;;14.18;3.17;;;;;;;44.85;20.00;97745.91;5005203;28;20077;-60
2022/08/04 09:29:03;;;;;;;18.23;3.95;;;;;;;42.18;21.83;97755.53;5005985;28;20030;-61
2022/08/04 09:32:02;;;;;;;20.17;4.20;;;;;;;46.55;18.75;97760.91;5005665;28;20073;-60
2022/08/04 09:34:43;;;;;;;17.27;3.80;;;;;;;44.01;19.93;97759.91;5005294;28;20046;-61
2022/08/04 09:37:13;;;;;;;;;;;;;;;45.25;19.54;97754.00;5006131;28;20061;-61
2022/08/04 09:39:54;;;;;;;14.90;3.60;;;;;;;45.54;18.99;97751.97;5006765;28;19924;-61
2022/08/04 09:42:19;;;;;;;15.45;3.78;;;;;;;45.24;19.48;97753.19;5007286;28;20075;-61
2022/08/04 09:44:51;;;;;;;13.80;3.47;;;;;;;45.87;19.38;97759.53;5007859;28;20788;-61
2022/08/04 09:47:22;;;;;;;13.75;3.33;;;;;;;42.93;20.74;97752.19;5008176;28;20355;-62
2022/08/04 09:49:56;;;;;;;25.70;4.22;;;;;;;44.45;20.03;97750.75;5006459;28;20611;-61
2022/08/04 09:52:31;;;;;;;12.98;3.42;;;;;;;45.38;19.23;97756.88;5006290;28;20120;-61
2022/08/04 09:55:29;;;;;;;15.68;3.55;;;;;;;44.34;19.80;97752.75;5006200;28;20060;-62
2022/08/04 09:58:24;;;;;;;22.35;4.10;;;;;;;44.25;20.46;97738.81;5005633;28;20069;-61
2022/08/04 10:01:00;;;;;;;14.10;3.35;;;;;;;44.50;19.30;97744.34;5005004;28;20080;-61
2022/08/04 10:03:30;;;;;;;18.30;3.65;;;;;;;45.27;19.85;97743.53;5007863;28;20033;-64
2022/08/04 10:06:22;;;;;;;13.32;3.28;;;;;;;45.33;19.07;97743.19;5008377;28;20048;-65
2022/08/04 10:09:10;;;;;;;16.95;3.80;;;;;;;43.64;20.27;97739.25;5008118;28;20465;-64
2022/08/04 10:11:48;;;;;;;20.77;4.32;;;;;;;42.63;20.85;97734.69;5006114;28;20606;-61
2022/08/04 10:14:22;;;;;;;19.52;4.20;;;;;;;44.18;19.26;97732.84;5006942;28;20029;-62
2022/08/04 10:16:50;;;;;;;13.35;3.30;;;;;;;44.10;19.89;97725.19;5006665;28;20042;-61
2022/08/04 10:19:26;;;;;;;18.48;4.05;;;;;;;43.18;20.99;97731.22;5007302;28;20125;-61
2022/08/04 10:22:16;;;;;;;14.45;3.38;;;;;;;45.09;19.13;97726.69;5006201;28;20039;-62
2022/08/04 10:25:12;;;;;;;16.42;3.83;;;;;;;42.70;20.78;97727.00;5006267;28;20063;-64
2022/08/04 10:27:49;;;;;;;16.95;3.75;;;;;;;44.67;19.08;97727.44;5008734;28;20443;-61
2022/08/04 10:30:17;;;;;;;15.90;3.58;;;;;;;43.61;20.42;97726.09;5002965;28;20025;-62
2022/08/04 10:33:01;;;;;;;19.33;4.10;;;;;;;42.66;20.25;97720.41;5006052;28;20137;-62
2022/08/04 10:35:36;;;;;;;31.80;5.03;;;;;;;43.36;19.61;97724.31;5006898;28;20115;-61
2022/08/04 10:38:12;;;;;;;17.98;3.50;;;;;;;43.54;19.53;97720.09;5008561;28;20033;-62
2022/08/04 10:40:56;;;;;;;18.27;4.20;;;;;;;44.37;19.13;97718.38;5005196;28;20033;-61
2022/08/04 10:43:34;;;;;;;18.08;3.75;;;;;;;44.83;18.36;97707.72;5007257;28;20026;-62
2022/08/04 10:46:12;;;;;;;18.20;3.63;;;;;;;43.87;19.41;97699.28;5005182;28;20088;-62
2022/08/04 10:48:58;;;;;;;19.02;4.20;;;;;;;44.55;18.58;97708.59;5007152;28;20048;-62
2022/08/04 10:52:02;;;;;;;16.48;3.95;;;;;;;44.19;19.05;97707.00;5005466;28;20047;-62
2022/08/04 10:54:46;;;;;;;20.25;3.88;;;;;;;43.36;20.32;97700.41;4941910;28;20038;-62
2022/08/04 10:57:27;;;;;;;16.15;3.40;;;;;;;42.56;20.58;97698.53;5005629;28;20085;-61
2022/08/04 10:59:57;;;;;;;18.15;4.13;;;;;;;44.48;19.42;97686.91;5005116;28;20037;-61
2022/08/04 11:02:44;;;;;;;43.45;5.95;;;;;;;44.73;18.97;97687.78;5003704;28;20137;-62
2022/08/04 11:05:30;;;;;;;12.60;3.22;;;;;;;44.32;19.28;97694.50;5006148;28;20172;-62
2022/08/04 11:08:02;;;;;;;18.15;4.18;;;;;;;44.85;18.67;97685.41;5006613;28;20069;-61
2022/08/04 11:10:33;;;;;;;24.15;4.20;;;;;;;44.88;18.76;97679.31;5009725;28;20030;-62
2022/08/04 11:13:08;;;;;;;19.48;4.35;;;;;;;42.34;20.04;97685.13;5009338;28;20053;-61
2022/08/04 11:15:38;;;;;;;15.80;3.67;;;;;;;43.49;19.62;97685.25;5008858;28;20121;-62
2022/08/04 11:18:24;;;;;;;19.67;4.53;;;;;;;42.44;20.01;97685.06;5012650;28;20029;-61
2022/08/04 11:20:58;;;;;;;16.23;3.72;;;;;;;42.55;20.06;97680.41;5009362;28;20458;-61
2022/08/04 11:23:32;;;;;;;15.88;3.22;;;;;;;44.36;19.11;97683.75;5012008;28;20032;-61
2022/08/04 11:26:23;;;;;;;16.58;3.83;;;;;;;42.71;20.28;97690.25;5009983;28;20741;-62
2022/08/04 11:29:09;;;;;;;22.33;4.20;;;;;;;44.01;19.12;97683.78;5011192;28;20033;-61
2022/08/04 11:31:39;;;;;;;31.42;5.20;;;;;;;43.12;19.70;97676.41;5008817;28;20365;-60
2022/08/04 11:34:08;;;;;;;29.05;4.70;;;;;;;42.27;20.64;97674.44;5008869;28;20040;-60
2022/08/04 11:36:43;;;;;;;14.95;3.35;;;;;;;42.89;19.77;97685.25;5008011;28;20041;-60
2022/08/04 11:39:21;;;;;;;23.80;4.50;;;;;;;42.20;19.74;97684.03;5008978;28;20022;-61
2022/08/04 11:42:13;;;;;;;15.95;3.60;;;;;;;41.34;20.82;97684.50;5009012;28;20791;-60
2022/08/04 11:45:21;;;;;;;17.40;3.78;;;;;;;40.65;20.90;97682.81;5009585;28;20021;-60
2022/08/04 11:47:52;;;;;;;19.75;3.72;;;;;;;41.71;20.33;97666.25;4995549;28;20901;-60
2022/08/04 11:50:33;;;;;;;17.52;3.85;;;;;;;40.38;21.72;97678.28;5007068;28;20551;-60
2022/08/04 11:53:00;;;;;;;17.23;3.90;;;;;;;41.69;20.43;97669.25;5009980;28;20036;-61
2022/08/04 11:55:27;;;;;;;22.73;4.30;;;;;;;41.44;20.67;97671.94;5009318;28;20032;-59
2022/08/04 11:57:53;;;;;;;21.40;3.90;;;;;;;40.36;21.31;97666.81;5007220;28;20192;-61
2022/08/04 12:00:21;;;;;;;20.30;4.22;;;;;;;40.38;21.23;97672.81;5008814;28;20120;-61
2022/08/04 12:03:05;;;;;;;20.67;4.28;;;;;;;40.63;21.16;97663.13;5007491;28;20087;-60
2022/08/04 12:05:32;;;;;;;25.05;4.80;;;;;;;39.51;21.96;97659.28;5006959;28;20037;-59